Time;durP1;ratioP1;P1;durP2;ratioP2;P2;SDS_P1;SDS_P2;PMS_P1;PMS_P2;Temp;Humidity;BMP_temperature;BMP_pressure;BME280_temperature;BME280_humidity;BME280_pressure;Samples;Min_cycle;Max_cycle;Signal;HPM_P1;HPM_P2
2023/12/27 00:01:18;;;;;;;12.10;1.60;;;3.70;99.90;;;;;;5076884;28;20036;-70
2023/12/27 00:03:44;;;;;;;7.50;1.30;;;3.60;99.90;;;;;;5068337;28;20048;-70
2023/12/27 00:06:09;;;;;;;8.47;1.80;;;3.70;99.90;;;;;;5081304;28;20032;-70
2023/12/27 00:08:35;;;;;;;5.17;1.40;;;3.70;99.90;;;;;;5075246;28;20489;-70
2023/12/27 00:11:02;;;;;;;6.53;1.40;;;3.60;99.90;;;;;;5076724;28;20138;-70
2023/12/27 00:13:28;;;;;;;4.82;1.27;;;3.60;99.90;;;;;;5081677;28;20196;-70
2023/12/27 00:15:53;;;;;;;4.50;1.27;;;3.60;99.90;;;;;;5077286;28;20426;-70
2023/12/27 00:18:19;;;;;;;13.30;1.47;;;3.60;99.90;;;;;;5079984;28;20416;-70
2023/12/27 00:20:47;;;;;;;5.90;1.47;;;3.60;99.90;;;;;;5080716;28;20040;-70
2023/12/27 00:23:12;;;;;;;9.13;2.00;;;3.60;99.90;;;;;;5076725;28;20032;-70
2023/12/27 00:25:41;;;;;;;6.50;1.43;;;3.60;99.90;;;;;;5075005;28;20174;-70
2023/12/27 00:28:06;;;;;;;6.63;1.95;;;3.60;99.90;;;;;;5080435;28;20058;-70
2023/12/27 00:30:35;;;;;;;4.22;1.60;;;3.50;99.90;;;;;;5077012;28;20512;-70
2023/12/27 00:33:00;;;;;;;4.60;1.40;;;3.50;99.90;;;;;;5065126;28;20087;-70
2023/12/27 00:35:26;;;;;;;2.80;1.10;;;3.60;99.90;;;;;;5080981;28;20123;-70
2023/12/27 00:37:51;;;;;;;5.93;1.37;;;3.60;99.90;;;;;;5080761;28;20082;-70
2023/12/27 00:40:17;;;;;;;3.50;1.60;;;3.60;99.90;;;;;;5081868;28;20403;-70
2023/12/27 00:42:42;;;;;;;7.07;2.13;;;3.60;99.90;;;;;;5082226;28;20048;-70
2023/12/27 00:45:08;;;;;;;9.37;1.33;;;3.50;99.90;;;;;;5074756;28;20117;-70
2023/12/27 00:47:37;;;;;;;9.73;1.48;;;3.50;99.90;;;;;;5082028;28;20042;-70
2023/12/27 00:50:03;;;;;;;4.68;1.50;;;3.50;99.90;;;;;;5077678;28;20519;-70
2023/12/27 00:52:31;;;;;;;6.63;1.35;;;3.60;99.90;;;;;;5073416;28;20052;-70
2023/12/27 00:55:00;;;;;;;7.70;1.50;;;3.50;99.90;;;;;;5079928;28;20039;-70
2023/12/27 00:57:25;;;;;;;6.25;1.45;;;3.50;99.90;;;;;;5080050;28;20040;-70
2023/12/27 00:59:54;;;;;;;10.55;1.80;;;3.60;99.90;;;;;;5089080;28;20036;-70
2023/12/27 01:02:19;;;;;;;5.13;1.20;;;3.50;99.90;;;;;;5058980;28;20092;-70
2023/12/27 01:04:45;;;;;;;7.07;1.30;;;3.50;99.90;;;;;;5076777;28;20515;-70
2023/12/27 01:07:10;;;;;;;3.90;1.30;;;3.50;99.90;;;;;;5077908;28;20040;-70
2023/12/27 01:09:39;;;;;;;6.07;1.17;;;3.40;99.90;;;;;;5079804;28;20040;-70
2023/12/27 01:12:05;;;;;;;7.45;1.98;;;3.40;99.90;;;;;;5078911;28;20044;-70
2023/12/27 01:14:30;;;;;;;4.53;1.63;;;3.40;99.90;;;;;;5071831;28;20052;-70
2023/12/27 01:16:56;;;;;;;3.33;1.43;;;3.30;99.90;;;;;;5078031;28;20032;-70
2023/12/27 01:19:22;;;;;;;6.57;1.80;;;3.30;99.90;;;;;;5077477;28;20127;-70
2023/12/27 01:21:47;;;;;;;5.80;2.00;;;3.30;99.90;;;;;;5074768;28;20688;-70
2023/12/27 01:24:13;;;;;;;8.17;1.43;;;3.30;99.90;;;;;;5084456;28;20043;-70
2023/12/27 01:26:38;;;;;;;4.97;2.00;;;3.20;99.90;;;;;;5074050;28;20032;-70
2023/12/27 01:29:04;;;;;;;4.20;1.37;;;3.20;99.90;;;;;;5084251;28;20046;-69
2023/12/27 01:31:32;;;;;;;8.20;1.47;;;3.10;99.90;;;;;;5074756;28;20043;-70
2023/12/27 01:33:58;;;;;;;6.35;1.30;;;3.10;99.90;;;;;;5078887;28;20032;-70
2023/12/27 01:36:23;;;;;;;5.83;1.33;;;3.10;99.90;;;;;;5080574;28;20070;-70
2023/12/27 01:38:49;;;;;;;7.07;1.43;;;3.10;99.90;;;;;;5076575;28;20044;-70
2023/12/27 01:41:15;;;;;;;6.83;1.63;;;3.10;99.90;;;;;;5077695;28;20071;-70
2023/12/27 01:43:43;;;;;;;14.43;2.65;;;3.00;99.90;;;;;;5079097;28;20040;-70
2023/12/27 01:46:09;;;;;;;7.03;2.90;;;3.00;99.90;;;;;;5073396;28;20032;-70
2023/12/27 01:48:36;;;;;;;8.10;2.67;;;3.00;99.90;;;;;;5081467;28;20324;-70
2023/12/27 01:51:02;;;;;;;6.18;2.55;;;2.90;99.90;;;;;;5071369;28;20094;-70
2023/12/27 01:53:27;;;;;;;12.60;3.37;;;2.90;99.90;;;;;;5077383;28;20276;-70
2023/12/27 01:55:54;;;;;;;9.53;3.23;;;2.90;99.90;;;;;;5079342;28;20181;-70
2023/12/27 01:58:21;;;;;;;;;;;2.90;99.90;;;;;;5083189;28;20726;-70
2023/12/27 02:00:48;;;;;;;11.25;3.95;;;2.80;99.90;;;;;;5077146;28;20257;-70
2023/12/27 02:03:14;;;;;;;12.48;4.38;;;2.80;99.90;;;;;;5075669;28;20048;-70
2023/12/27 02:05:41;;;;;;;10.13;4.43;;;2.80;99.90;;;;;;5075617;28;20578;-70
2023/12/27 02:08:09;;;;;;;14.75;5.00;;;2.80;99.90;;;;;;5080667;28;20069;-70
2023/12/27 02:10:38;;;;;;;18.10;5.80;;;2.70;99.90;;;;;;5079489;28;20694;-70
2023/12/27 02:13:04;;;;;;;18.92;7.03;;;2.70;99.90;;;;;;5075295;28;20043;-70
2023/12/27 02:15:30;;;;;;;;;;;2.70;99.90;;;;;;5081372;28;20084;-70
2023/12/27 02:17:56;;;;;;;13.00;4.80;;;2.60;99.90;;;;;;5085719;28;19979;-70
2023/12/27 02:20:24;;;;;;;15.05;5.22;;;2.60;99.90;;;;;;5070712;28;20119;-70
2023/12/27 02:22:52;;;;;;;15.23;5.75;;;2.60;99.90;;;;;;5080272;28;20389;-70
2023/12/27 02:25:18;;;;;;;15.65;5.20;;;2.50;99.90;;;;;;5083985;28;20745;-70
2023/12/27 02:27:46;;;;;;;28.45;7.80;;;2.50;99.90;;;;;;5077265;28;20101;-70
2023/12/27 02:30:20;;;;;;;33.92;10.02;;;2.50;99.90;;;;;;5068383;28;20230;-70
2023/12/27 02:32:49;;;;;;;25.40;8.63;;;2.50;99.90;;;;;;5075383;28;20130;-70
2023/12/27 02:35:14;;;;;;;22.35;7.65;;;2.50;99.90;;;;;;5077913;28;20105;-70
2023/12/27 02:37:40;;;;;;;27.23;7.90;;;2.40;99.90;;;;;;5074193;28;20036;-70
2023/12/27 02:40:07;;;;;;;8.90;3.83;;;2.50;99.90;;;;;;5077921;28;20090;-70
2023/12/27 02:42:33;;;;;;;21.75;4.97;;;2.40;99.90;;;;;;5076069;28;20101;-70
2023/12/27 02:44:59;;;;;;;14.75;3.42;;;2.50;99.90;;;;;;5079252;28;20112;-70
2023/12/27 02:47:24;;;;;;;7.87;2.33;;;2.50;99.90;;;;;;5074801;28;20051;-70
2023/12/27 02:49:50;;;;;;;11.07;2.27;;;2.50;99.90;;;;;;5081902;28;20036;-70
2023/12/27 02:52:16;;;;;;;13.53;2.23;;;2.50;99.90;;;;;;5082823;28;20342;-70
2023/12/27 02:54:44;;;;;;;6.77;1.50;;;2.60;99.90;;;;;;5076536;28;20032;-70
2023/12/27 02:57:10;;;;;;;6.18;1.60;;;2.60;99.90;;;;;;5077049;28;20506;-70
2023/12/27 02:59:35;;;;;;;10.50;1.60;;;2.70;99.90;;;;;;5078286;28;20147;-70
2023/12/27 03:02:01;;;;;;;11.67;1.83;;;2.70;99.90;;;;;;5077180;28;20040;-69
2023/12/27 03:04:26;;;;;;;8.97;2.20;;;2.70;99.90;;;;;;5080572;28;20039;-70
2023/12/27 03:06:55;;;;;;;7.80;2.43;;;2.70;99.90;;;;;;5075829;28;20051;-69
2023/12/27 03:09:20;;;;;;;9.05;2.20;;;2.70;99.90;;;;;;5081584;28;20036;-69
2023/12/27 03:11:46;;;;;;;8.40;2.07;;;2.70;99.90;;;;;;5081066;28;20036;-70
2023/12/27 03:14:12;;;;;;;8.03;2.40;;;2.70;99.90;;;;;;5085753;28;20040;-70
2023/12/27 03:16:37;;;;;;;21.40;4.30;;;2.70;99.90;;;;;;5079883;28;20050;-69
2023/12/27 03:19:03;;;;;;;11.57;3.53;;;2.70;99.90;;;;;;5080044;28;20041;-69
2023/12/27 03:21:28;;;;;;;10.30;2.80;;;2.70;99.90;;;;;;5062565;28;20036;-69
2023/12/27 03:23:54;;;;;;;7.63;2.57;;;2.70;99.90;;;;;;5085479;28;20046;-69
2023/12/27 03:26:20;;;;;;;12.63;2.40;;;2.70;99.90;;;;;;5070067;28;20312;-69
2023/12/27 03:28:45;;;;;;;9.80;2.70;;;2.60;99.90;;;;;;5077370;28;20368;-69
2023/12/27 03:31:13;;;;;;;13.30;3.27;;;2.60;99.90;;;;;;5079201;28;20049;-69
2023/12/27 03:33:41;;;;;;;7.55;2.55;;;2.60;99.90;;;;;;5083599;28;20151;-70
2023/12/27 03:36:07;;;;;;;5.00;2.40;;;2.60;99.90;;;;;;5076723;28;20613;-69
2023/12/27 03:38:32;;;;;;;10.93;2.23;;;2.60;99.90;;;;;;5076872;28;20044;-70
2023/12/27 03:40:58;;;;;;;7.83;2.40;;;2.60;99.90;;;;;;5082255;28;20076;-70
2023/12/27 03:43:24;;;;;;;8.47;2.00;;;2.60;99.90;;;;;;5076666;28;20060;-69
2023/12/27 03:45:53;;;;;;;10.27;2.60;;;2.60;99.90;;;;;;5080823;28;20044;-70
2023/12/27 03:48:19;;;;;;;8.32;2.63;;;2.50;99.90;;;;;;5074538;28;20052;-70
2023/12/27 03:50:45;;;;;;;7.90;2.67;;;2.50;99.90;;;;;;5063414;28;20094;-70
2023/12/27 03:53:10;;;;;;;11.77;2.33;;;2.50;99.90;;;;;;5057151;28;20388;-70
2023/12/27 03:55:36;;;;;;;7.37;2.33;;;2.60;99.90;;;;;;5072280;28;20040;-70
2023/12/27 03:58:01;;;;;;;8.47;2.40;;;2.50;99.90;;;;;;5074748;28;20070;-70
2023/12/27 04:00:28;;;;;;;12.93;2.17;;;2.50;99.90;;;;;;5065902;28;20048;-70
2023/12/27 04:02:56;;;;;;;6.10;1.83;;;2.50;99.90;;;;;;5072546;28;20493;-70
2023/12/27 04:05:21;;;;;;;5.53;2.08;;;2.50;99.90;;;;;;5091108;28;20051;-70
2023/12/27 04:07:47;;;;;;;8.87;2.30;;;2.50;99.90;;;;;;5074011;28;20040;-70
2023/12/27 04:10:13;;;;;;;5.73;2.00;;;2.50;99.90;;;;;;5075092;28;20458;-71
2023/12/27 04:12:39;;;;;;;10.47;2.90;;;2.50;99.90;;;;;;5074908;28;20035;-70
2023/12/27 04:15:07;;;;;;;5.70;1.85;;;2.50;99.90;;;;;;5074527;28;20131;-70
2023/12/27 04:17:32;;;;;;;11.70;1.77;;;2.50;99.90;;;;;;5071019;28;22082;-70
2023/12/27 04:19:58;;;;;;;5.73;1.80;;;2.50;99.90;;;;;;5076994;28;20052;-70
2023/12/27 04:22:24;;;;;;;4.37;1.93;;;2.50;99.90;;;;;;5079994;28;20036;-70
2023/12/27 04:24:49;;;;;;;4.53;1.80;;;2.50;99.90;;;;;;5077582;28;20044;-70
2023/12/27 04:27:15;;;;;;;6.50;1.57;;;2.50;99.90;;;;;;5081275;28;20032;-70
2023/12/27 04:29:44;;;;;;;7.03;1.77;;;2.60;99.90;;;;;;5077952;28;20158;-70
2023/12/27 04:32:09;;;;;;;8.35;1.88;;;2.60;99.90;;;;;;5081390;28;20445;-70
2023/12/27 04:34:35;;;;;;;6.90;1.90;;;2.60;99.90;;;;;;5078587;28;20205;-70
2023/12/27 04:37:03;;;;;;;5.50;2.00;;;2.60;99.90;;;;;;5081910;28;20134;-70
2023/12/27 04:39:32;;;;;;;11.02;2.08;;;2.70;99.90;;;;;;5077111;28;20044;-70
2023/12/27 04:41:58;;;;;;;7.32;2.22;;;2.70;99.90;;;;;;5083131;28;20033;-70
2023/12/27 04:44:23;;;;;;;8.50;2.53;;;2.70;99.90;;;;;;5080477;28;20092;-70
2023/12/27 04:46:52;;;;;;;11.60;1.93;;;2.70;99.90;;;;;;5075234;28;20032;-69
2023/12/27 04:49:17;;;;;;;7.57;2.45;;;2.70;99.90;;;;;;5080915;28;20130;-70
2023/12/27 04:51:45;;;;;;;3.57;2.00;;;2.70;99.90;;;;;;5079874;28;20123;-70
2023/12/27 04:54:10;;;;;;;8.25;2.00;;;2.70;99.90;;;;;;5079427;28;20500;-70
2023/12/27 04:56:36;;;;;;;9.20;2.20;;;2.80;99.90;;;;;;5077938;28;20130;-70
2023/12/27 04:59:03;;;;;;;7.90;2.63;;;2.70;99.90;;;;;;5076311;28;20173;-70
2023/12/27 05:01:29;;;;;;;9.10;3.03;;;2.80;99.90;;;;;;5069370;28;20136;-69
2023/12/27 05:03:55;;;;;;;7.27;2.70;;;2.70;99.90;;;;;;5072652;28;20024;-70
2023/12/27 05:06:21;;;;;;;6.43;2.07;;;2.70;99.90;;;;;;5087772;28;20070;-69
2023/12/27 05:08:47;;;;;;;5.93;2.00;;;2.80;99.90;;;;;;5078254;28;20036;-70
2023/12/27 05:11:15;;;;;;;8.73;2.83;;;2.80;99.90;;;;;;5076619;28;20190;-70
2023/12/27 05:13:41;;;;;;;5.53;2.53;;;2.80;99.90;;;;;;5054476;28;20726;-69
2023/12/27 05:16:10;;;;;;;5.53;2.50;;;2.80;99.90;;;;;;5062414;28;20479;-70
2023/12/27 05:18:40;;;;;;;5.78;2.08;;;2.90;99.90;;;;;;5081026;28;20051;-69
2023/12/27 05:21:12;;;;;;;7.80;2.58;;;2.90;99.90;;;;;;5074511;28;20050;-69
2023/12/27 05:23:38;;;;;;;7.65;2.75;;;2.90;99.90;;;;;;5082381;28;20407;-70
2023/12/27 05:26:05;;;;;;;3.80;2.00;;;2.90;99.90;;;;;;5083497;28;20036;-70
2023/12/27 05:28:31;;;;;;;6.82;2.20;;;2.90;99.90;;;;;;5094816;27;20429;-70
2023/12/27 05:30:57;;;;;;;13.80;3.10;;;2.90;99.90;;;;;;5089604;28;20051;-70
2023/12/27 05:33:24;;;;;;;12.03;2.27;;;2.90;99.90;;;;;;5080771;28;20476;-70
2023/12/27 05:35:50;;;;;;;11.55;3.13;;;2.90;99.90;;;;;;5079095;28;21602;-70
2023/12/27 05:38:16;;;;;;;10.82;2.63;;;2.90;99.90;;;;;;5081930;28;20063;-70
2023/12/27 05:40:42;;;;;;;7.13;2.60;;;3.00;99.90;;;;;;5085941;28;20078;-69
2023/12/27 05:43:10;;;;;;;6.00;2.22;;;3.00;99.90;;;;;;5085229;28;20065;-70
2023/12/27 05:45:39;;;;;;;6.38;2.60;;;3.00;99.90;;;;;;5079817;28;20088;-70
2023/12/27 05:48:05;;;;;;;5.75;2.13;;;3.00;99.90;;;;;;5064738;28;20412;-70
2023/12/27 05:50:30;;;;;;;6.90;3.53;;;3.00;99.90;;;;;;5076383;28;20048;-70
2023/12/27 05:52:59;;;;;;;8.47;2.53;;;3.00;99.90;;;;;;5074809;28;20092;-70
2023/12/27 05:55:25;;;;;;;9.50;2.85;;;3.00;99.90;;;;;;5073652;28;20178;-70
2023/12/27 05:57:50;;;;;;;6.30;2.63;;;3.00;99.90;;;;;;5077836;28;20134;-70
2023/12/27 06:00:16;;;;;;;6.13;2.40;;;3.10;99.90;;;;;;5075315;28;20044;-70
2023/12/27 06:02:42;;;;;;;10.10;2.75;;;3.10;99.90;;;;;;5084231;28;20024;-69
2023/12/27 06:05:11;;;;;;;5.33;2.93;;;3.10;99.90;;;;;;5082056;28;20043;-70
2023/12/27 06:07:37;;;;;;;8.60;2.35;;;3.10;99.90;;;;;;5077303;28;20037;-70
2023/12/27 06:10:03;;;;;;;12.03;2.87;;;3.10;99.90;;;;;;5076369;28;20055;-70
2023/12/27 06:12:29;;;;;;;12.18;3.28;;;3.10;99.90;;;;;;5082623;28;20115;-70
2023/12/27 06:14:54;;;;;;;10.57;2.77;;;3.20;99.90;;;;;;5074842;28;20131;-70
2023/12/27 06:17:20;;;;;;;11.17;2.63;;;3.20;99.90;;;;;;5082606;28;20511;-69
2023/12/27 06:19:45;;;;;;;11.40;3.67;;;3.20;99.90;;;;;;5078585;28;20043;-70
2023/12/27 06:22:11;;;;;;;6.10;2.53;;;3.30;99.90;;;;;;5079594;28;20358;-70
2023/12/27 06:24:37;;;;;;;14.13;3.40;;;3.30;99.90;;;;;;5076738;28;20081;-70
2023/12/27 06:27:06;;;;;;;8.43;3.33;;;3.30;99.90;;;;;;5075615;28;20085;-70
2023/12/27 06:29:32;;;;;;;7.18;2.50;;;3.30;99.90;;;;;;5074571;28;20040;-70
2023/12/27 06:31:58;;;;;;;10.02;2.20;;;3.30;99.90;;;;;;5080941;28;20040;-70
2023/12/27 06:34:23;;;;;;;5.13;2.23;;;3.40;99.90;;;;;;5081067;28;20039;-70
2023/12/27 06:36:49;;;;;;;14.77;2.80;;;3.40;99.90;;;;;;5080852;28;20101;-70
2023/12/27 06:39:15;;;;;;;8.57;3.17;;;3.40;99.90;;;;;;5077681;28;20398;-69
2023/12/27 06:41:40;;;;;;;6.73;2.37;;;3.40;99.90;;;;;;5074810;28;20040;-70
2023/12/27 06:44:06;;;;;;;10.70;2.60;;;3.50;99.90;;;;;;5079607;28;20288;-69
2023/12/27 06:46:31;;;;;;;10.33;2.30;;;3.50;99.90;;;;;;5074390;28;20059;-70
2023/12/27 06:48:57;;;;;;;10.00;2.23;;;3.50;99.90;;;;;;5076120;28;20036;-70
2023/12/27 06:51:22;;;;;;;5.93;2.50;;;3.60;99.90;;;;;;5075746;28;20056;-70
2023/12/27 06:53:51;;;;;;;10.77;2.27;;;3.60;99.90;;;;;;5070455;28;20469;-70
2023/12/27 06:56:16;;;;;;;5.70;2.55;;;3.60;99.90;;;;;;5084605;28;20086;-70
2023/12/27 06:58:42;;;;;;;12.93;3.27;;;3.60;99.90;;;;;;5082752;28;20043;-70
2023/12/27 07:01:09;;;;;;;12.37;2.77;;;3.60;99.90;;;;;;5081200;28;20044;-70
2023/12/27 07:03:38;;;;;;;7.18;2.30;;;3.60;99.90;;;;;;5072190;28;20051;-70
2023/12/27 07:06:04;;;;;;;6.40;2.30;;;3.60;99.90;;;;;;5064197;28;20027;-70
2023/12/27 07:08:31;;;;;;;9.70;1.93;;;3.70;99.90;;;;;;5078360;28;20119;-70
2023/12/27 07:10:56;;;;;;;7.60;2.47;;;3.70;99.90;;;;;;5081593;28;20276;-70
2023/12/27 07:13:22;;;;;;;5.23;1.90;;;3.70;99.90;;;;;;5079703;28;20051;-70
2023/12/27 07:15:47;;;;;;;6.20;1.80;;;3.70;99.90;;;;;;5077213;28;20054;-70
2023/12/27 07:18:13;;;;;;;5.90;2.10;;;3.70;99.90;;;;;;5081049;28;20127;-70
2023/12/27 07:20:39;;;;;;;7.50;2.00;;;3.80;99.90;;;;;;5079694;28;20197;-70
2023/12/27 07:23:04;;;;;;;6.17;1.97;;;3.80;99.90;;;;;;5081884;28;20040;-70
2023/12/27 07:25:30;;;;;;;12.77;2.13;;;3.80;99.90;;;;;;5076262;28;20427;-70
2023/12/27 07:27:56;;;;;;;11.77;2.00;;;3.80;99.90;;;;;;5085138;28;20036;-70
2023/12/27 07:30:22;;;;;;;8.97;2.33;;;3.80;99.90;;;;;;5079773;28;20515;-70
2023/12/27 07:32:51;;;;;;;9.95;2.50;;;3.80;99.90;;;;;;5076131;28;20048;-70
2023/12/27 07:35:17;;;;;;;;;;;3.90;99.90;;;;;;5080163;28;20063;-69
2023/12/27 07:37:45;;;;;;;10.35;2.25;;;3.90;99.90;;;;;;5073117;28;20158;-70
2023/12/27 07:40:12;;;;;;;7.63;1.67;;;3.90;99.90;;;;;;5076047;28;20049;-70
2023/12/27 07:42:37;;;;;;;6.00;2.28;;;3.90;99.90;;;;;;5075912;28;20048;-70
2023/12/27 07:45:04;;;;;;;8.50;1.93;;;4.00;99.90;;;;;;5080193;28;20536;-70
2023/12/27 07:47:32;;;;;;;7.28;1.95;;;3.90;99.90;;;;;;5061676;28;20438;-70
2023/12/27 07:49:58;;;;;;;5.65;1.48;;;3.90;99.90;;;;;;5077559;28;20091;-70
2023/12/27 07:52:24;;;;;;;10.60;1.83;;;4.00;99.90;;;;;;5089039;28;20550;-70
2023/12/27 07:54:49;;;;;;;8.27;1.70;;;4.10;99.90;;;;;;5085082;28;20044;-70
2023/12/27 07:57:15;;;;;;;8.37;2.50;;;4.00;99.90;;;;;;5088760;28;20044;-70
2023/12/27 07:59:41;;;;;;;8.67;2.30;;;4.10;99.90;;;;;;5076363;28;20105;-70
2023/12/27 08:02:06;;;;;;;5.40;1.60;;;4.10;99.90;;;;;;5082779;28;20032;-69
2023/12/27 08:04:32;;;;;;;6.37;2.67;;;4.10;99.90;;;;;;5075397;28;20554;-70
2023/12/27 08:06:57;;;;;;;9.03;1.80;;;4.20;99.90;;;;;;5080854;28;20082;-70
2023/12/27 08:09:26;;;;;;;11.60;2.17;;;4.20;99.90;;;;;;5080902;28;20075;-70
2023/12/27 08:11:52;;;;;;;7.30;2.33;;;4.20;99.90;;;;;;5076723;28;21719;-70
2023/12/27 08:14:17;;;;;;;8.83;1.80;;;4.20;99.90;;;;;;5080038;28;20056;-70
2023/12/27 08:16:43;;;;;;;7.90;1.67;;;4.30;99.90;;;;;;5082512;28;20119;-69
2023/12/27 08:19:10;;;;;;;7.13;1.65;;;4.30;99.90;;;;;;5082184;28;20048;-69
2023/12/27 08:21:35;;;;;;;6.82;1.80;;;4.30;99.90;;;;;;5082791;28;20539;-69
2023/12/27 08:24:01;;;;;;;11.33;3.23;;;4.30;99.90;;;;;;5084666;28;20044;-71
2023/12/27 08:26:26;;;;;;;9.17;1.87;;;4.30;99.90;;;;;;5063506;28;20057;-71
2023/12/27 08:28:52;;;;;;;6.93;1.80;;;4.30;99.90;;;;;;5083389;28;20655;-69
2023/12/27 08:31:18;;;;;;;6.90;2.03;;;4.40;99.90;;;;;;5079130;28;20040;-69
2023/12/27 08:33:48;;;;;;;8.55;1.48;;;4.40;99.90;;;;;;5074062;28;20062;-69
2023/12/27 08:36:14;;;;;;;7.70;1.45;;;4.40;99.90;;;;;;5083226;28;20505;-69
2023/12/27 08:38:41;;;;;;;4.07;1.37;;;4.40;99.90;;;;;;5073846;28;20052;-69
2023/12/27 08:41:06;;;;;;;10.02;1.70;;;4.50;99.90;;;;;;5081350;28;20281;-69
2023/12/27 08:43:33;;;;;;;7.03;2.07;;;4.50;99.90;;;;;;5078441;28;20378;-69
2023/12/27 08:45:58;;;;;;;5.65;1.40;;;4.50;99.90;;;;;;5077026;28;20052;-69
2023/12/27 08:48:24;;;;;;;8.53;2.03;;;4.50;99.90;;;;;;5086575;28;20089;-69
2023/12/27 08:50:51;;;;;;;11.53;1.87;;;4.50;99.90;;;;;;5084513;28;20044;-69
2023/12/27 08:53:16;;;;;;;;;;;4.50;99.90;;;;;;5084178;28;20047;-68
2023/12/27 08:55:42;;;;;;;6.90;1.92;;;4.60;99.90;;;;;;5081145;28;20444;-69
2023/12/27 08:58:09;;;;;;;7.47;1.53;;;4.60;99.90;;;;;;5080534;28;20040;-69
2023/12/27 09:00:35;;;;;;;8.05;2.67;;;4.70;99.90;;;;;;5081734;28;20047;-69
2023/12/27 09:03:00;;;;;;;5.53;1.70;;;4.60;99.90;;;;;;5090779;28;20040;-69
2023/12/27 09:05:26;;;;;;;8.30;1.33;;;4.70;99.90;;;;;;5075147;28;20406;-69
2023/12/27 09:07:51;;;;;;;3.13;1.53;;;4.70;99.90;;;;;;5086286;28;20080;-69
2023/12/27 09:10:17;;;;;;;5.77;1.87;;;4.70;99.90;;;;;;5082193;28;20046;-69
2023/12/27 09:12:44;;;;;;;11.70;1.80;;;4.80;99.90;;;;;;5070501;28;20445;-69
2023/12/27 09:15:10;;;;;;;5.05;1.50;;;4.80;99.90;;;;;;5081461;28;20055;-69
2023/12/27 09:17:36;;;;;;;6.90;1.63;;;4.80;99.90;;;;;;5091292;28;20484;-69
2023/12/27 09:20:03;;;;;;;5.53;2.20;;;4.80;99.90;;;;;;5081440;28;20300;-68
2023/12/27 09:22:29;;;;;;;7.15;1.63;;;4.90;99.90;;;;;;5079568;28;20044;-69
2023/12/27 09:24:54;;;;;;;11.80;3.17;;;4.80;99.90;;;;;;5075180;28;20036;-69
2023/12/27 09:27:20;;;;;;;11.50;2.10;;;4.90;99.90;;;;;;5076498;28;20039;-68
2023/12/27 09:29:46;;;;;;;10.17;2.07;;;5.00;99.90;;;;;;5085409;28;20047;-69
2023/12/27 09:32:11;;;;;;;4.93;1.80;;;4.90;99.90;;;;;;5071813;28;20043;-69
2023/12/27 09:34:37;;;;;;;6.40;1.83;;;5.00;99.90;;;;;;5061011;28;20040;-71
2023/12/27 09:37:03;;;;;;;9.65;1.88;;;5.00;99.90;;;;;;5080591;28;20035;-69
2023/12/27 09:39:30;;;;;;;9.23;2.40;;;5.00;99.90;;;;;;5085065;28;20119;-69
2023/12/27 09:41:57;;;;;;;8.25;2.50;;;5.10;99.90;;;;;;5080316;28;20060;-69
2023/12/27 09:44:23;;;;;;;12.57;3.08;;;5.10;99.90;;;;;;5079618;28;20048;-69
2023/12/27 09:46:49;;;;;;;15.07;3.55;;;5.20;99.90;;;;;;5074577;28;20094;-69
2023/12/27 09:49:15;;;;;;;9.30;2.90;;;5.20;99.90;;;;;;5074929;28;20043;-68
2023/12/27 09:51:42;;;;;;;9.85;3.08;;;5.20;99.90;;;;;;5078977;28;20380;-69
2023/12/27 09:54:08;;;;;;;6.25;2.67;;;5.20;99.90;;;;;;5075781;28;20054;-69
2023/12/27 09:56:36;;;;;;;14.75;3.35;;;5.30;99.90;;;;;;5082670;28;20056;-69
2023/12/27 09:59:06;;;;;;;10.52;3.38;;;5.30;99.90;;;;;;5080112;28;21774;-69
2023/12/27 10:01:37;;;;;;;10.27;3.63;;;5.30;99.90;;;;;;5081584;28;20488;-69
2023/12/27 10:04:10;;;;;;;7.50;3.13;;;5.30;99.90;;;;;;5081263;28;20047;-69
2023/12/27 10:06:43;;;;;;;7.10;2.80;;;5.30;99.90;;;;;;5075610;28;20118;-69
2023/12/27 10:09:10;;;;;;;14.07;3.35;;;5.40;99.90;;;;;;5083430;28;20223;-69
2023/12/27 10:11:40;;;;;;;7.15;3.08;;;5.40;99.90;;;;;;5083009;28;20396;-75
2023/12/27 10:14:07;;;;;;;9.40;3.50;;;5.40;99.90;;;;;;5070662;28;20194;-76
2023/12/27 10:16:32;;;;;;;12.75;3.35;;;5.50;99.90;;;;;;5074198;28;20230;-69
2023/12/27 10:19:00;;;;;;;9.73;3.00;;;5.50;99.90;;;;;;5083760;28;20460;-69
2023/12/27 10:21:25;;;;;;;13.32;4.25;;;5.50;99.90;;;;;;5080200;28;20624;-69
2023/12/27 10:23:52;;;;;;;13.63;3.43;;;5.70;99.90;;;;;;5076608;28;20396;-70
2023/12/27 10:26:19;;;;;;;9.18;3.80;;;5.60;99.90;;;;;;5074567;28;20108;-69
2023/12/27 10:28:45;;;;;;;12.07;4.32;;;5.60;99.90;;;;;;5072971;28;20554;-69
2023/12/27 10:31:11;;;;;;;8.27;3.97;;;5.70;99.90;;;;;;5076953;28;20068;-69
2023/12/27 10:33:44;;;;;;;8.77;4.00;;;5.60;99.90;;;;;;5074536;28;20059;-69
2023/12/27 10:36:10;;;;;;;11.52;4.38;;;5.70;99.90;;;;;;5083692;28;20128;-72
2023/12/27 10:38:37;;;;;;;9.10;4.63;;;5.60;99.90;;;;;;5081871;28;20066;-69
2023/12/27 10:41:05;;;;;;;16.10;4.97;;;5.70;99.90;;;;;;5085385;28;20703;-69
2023/12/27 10:43:33;;;;;;;12.48;4.47;;;5.60;99.90;;;;;;5077884;28;20039;-69
2023/12/27 10:45:59;;;;;;;10.18;4.63;;;5.70;99.90;;;;;;5077015;28;20040;-69
2023/12/27 10:48:28;;;;;;;9.43;4.20;;;5.70;99.90;;;;;;5063407;28;20267;-69
2023/12/27 10:50:54;;;;;;;17.55;5.40;;;5.70;99.90;;;;;;5060096;28;20456;-69
2023/12/27 10:53:20;;;;;;;13.47;4.70;;;5.70;99.90;;;;;;5082747;28;20169;-69
2023/12/27 10:55:48;;;;;;;11.93;4.60;;;5.70;99.90;;;;;;5084510;28;20044;-69
2023/12/27 10:58:24;;;;;;;10.57;4.43;;;5.70;99.90;;;;;;5075901;28;20127;-69
2023/12/27 11:00:51;;;;;;;15.02;4.50;;;5.70;99.90;;;;;;5074558;28;20451;-69
2023/12/27 11:03:19;;;;;;;14.00;4.75;;;5.70;99.90;;;;;;5076680;28;20051;-69
2023/12/27 11:05:45;;;;;;;13.88;4.70;;;5.70;99.90;;;;;;5072005;28;20043;-69
2023/12/27 11:08:12;;;;;;;;;;;5.70;99.90;;;;;;5073339;28;20062;-69
2023/12/27 11:10:39;;;;;;;13.48;4.63;;;5.70;99.90;;;;;;5068132;28;19916;-69
2023/12/27 11:13:09;;;;;;;10.68;4.80;;;5.70;99.90;;;;;;5069196;28;20132;-69
2023/12/27 11:15:39;;;;;;;12.68;4.32;;;5.70;99.90;;;;;;5074557;28;20040;-69
2023/12/27 11:18:08;;;;;;;14.15;4.50;;;5.70;99.90;;;;;;5058789;28;22386;-69
2023/12/27 11:20:35;;;;;;;12.90;5.85;;;5.70;99.90;;;;;;5073584;28;20484;-69
2023/12/27 11:23:03;;;;;;;14.25;5.10;;;5.70;99.90;;;;;;5058406;28;20082;-69
2023/12/27 11:25:29;;;;;;;15.23;4.50;;;5.70;99.90;;;;;;5067563;28;20115;-69
2023/12/27 11:27:55;;;;;;;14.05;4.95;;;5.70;99.90;;;;;;5081916;28;20043;-70
2023/12/27 11:30:25;;;;;;;10.88;5.05;;;5.70;99.90;;;;;;5064448;28;20428;-69
2023/12/27 11:32:52;;;;;;;15.00;5.90;;;5.70;99.90;;;;;;5071326;28;20044;-69
2023/12/27 11:35:29;;;;;;;11.57;5.07;;;5.70;99.90;;;;;;5086540;28;20040;-70
2023/12/27 11:38:15;;;;;;;11.07;5.00;;;5.70;99.90;;;;;;5074743;28;20040;-69
2023/12/27 11:40:43;;;;;;;16.50;6.03;;;5.70;99.90;;;;;;5060869;28;20288;-69
2023/12/27 11:43:08;;;;;;;12.30;5.50;;;5.70;99.90;;;;;;5074180;28;20048;-69
2023/12/27 11:46:10;;;;;;;10.00;5.33;;;5.70;99.90;;;;;;5078997;28;20438;-69
2023/12/27 11:48:37;;;;;;;9.05;5.68;;;5.70;99.90;;;;;;5084168;28;20058;-69
2023/12/27 11:51:32;;;;;;;9.20;4.80;;;5.70;99.90;;;;;;5083190;28;20040;-69
2023/12/27 11:53:59;;;;;;;13.02;5.68;;;5.70;99.90;;;;;;5074163;28;20452;-69
2023/12/27 11:56:32;;;;;;;10.85;4.80;;;5.80;99.90;;;;;;5079125;28;20127;-69
2023/12/27 11:59:01;;;;;;;13.23;5.50;;;5.70;99.90;;;;;;5081949;28;20047;-69
2023/12/27 12:01:35;;;;;;;9.77;5.53;;;5.70;99.90;;;;;;5088079;28;20054;-70
2023/12/27 12:04:09;;;;;;;9.55;5.30;;;5.80;99.90;;;;;;5078996;28;20404;-69
2023/12/27 12:06:37;;;;;;;9.82;4.90;;;5.70;99.90;;;;;;5078053;28;20036;-69
2023/12/27 12:09:04;;;;;;;7.15;4.53;;;5.70;99.90;;;;;;5079608;28;20048;-69
2023/12/27 12:11:34;;;;;;;11.40;5.75;;;5.80;99.90;;;;;;5075495;28;20039;-70
2023/12/27 12:14:00;;;;;;;11.07;5.40;;;5.80;99.90;;;;;;5069942;28;20051;-70
2023/12/27 12:16:31;;;;;;;12.82;5.20;;;5.80;99.90;;;;;;5077931;28;20040;-68
2023/12/27 12:19:02;;;;;;;10.95;5.38;;;5.80;99.90;;;;;;5090698;28;20037;-67
2023/12/27 12:21:29;;;;;;;11.82;5.75;;;5.90;99.90;;;;;;5079645;28;20040;-67
2023/12/27 12:23:55;;;;;;;9.77;5.68;;;5.80;99.90;;;;;;5082314;28;20040;-66
2023/12/27 12:26:21;;;;;;;16.10;7.72;;;5.90;99.90;;;;;;5088937;28;20036;-67
2023/12/27 12:28:58;;;;;;;10.43;5.07;;;5.90;99.90;;;;;;5083364;28;20488;-67
2023/12/27 12:31:24;;;;;;;9.20;5.05;;;5.90;99.90;;;;;;5087859;28;20492;-69
2023/12/27 12:33:50;;;;;;;6.85;4.88;;;5.90;99.90;;;;;;5086524;28;21011;-69
2023/12/27 12:36:21;;;;;;;11.05;5.00;;;5.90;99.90;;;;;;5087576;28;20523;-71
2023/12/27 12:38:47;;;;;;;11.50;5.00;;;6.00;99.90;;;;;;5079662;28;20052;-70
2023/12/27 12:41:14;;;;;;;9.60;6.07;;;6.00;99.90;;;;;;5088689;28;20211;-69
2023/12/27 12:43:40;;;;;;;13.18;5.93;;;6.00;99.90;;;;;;5067321;28;20120;-70
2023/12/27 12:46:07;;;;;;;11.80;5.32;;;6.00;99.90;;;;;;5083615;28;20078;-69
2023/12/27 12:48:36;;;;;;;8.85;5.28;;;6.00;99.90;;;;;;5083797;28;20097;-69
2023/12/27 12:51:15;;;;;;;9.18;5.10;;;6.10;99.90;;;;;;5086372;28;20040;-68
2023/12/27 12:53:41;;;;;;;12.50;5.78;;;6.00;99.90;;;;;;5079940;28;20048;-67